createdAt,value
2019-06-15T00:05:05.307Z,7.62
2019-06-15T00:07:39.770Z,7.27
2019-06-15T00:12:47.273Z,7.30
2019-06-15T00:15:23.099Z,7.43
2019-06-15T00:17:57.674Z,7.70
2019-06-15T00:20:32.264Z,7.70
2019-06-15T00:23:06.847Z,8.55
2019-06-15T00:25:41.312Z,8.65
2019-06-15T00:28:15.931Z,8.78
2019-06-15T00:30:50.284Z,8.80
2019-06-15T00:33:24.940Z,8.40
2019-06-15T00:35:59.291Z,9.28
2019-06-15T00:38:33.938Z,9.15
2019-06-15T00:41:08.312Z,8.10
2019-06-15T00:43:42.816Z,8.30
2019-06-15T00:48:50.131Z,8.27
2019-06-15T00:51:24.705Z,8.27
2019-06-15T00:56:31.940Z,9.68
2019-06-15T00:59:06.435Z,8.33
2019-06-15T01:01:40.974Z,8.28
2019-06-15T01:04:15.689Z,8.57
2019-06-15T01:06:51.159Z,8.40
2019-06-15T01:09:26.365Z,8.48
2019-06-15T01:12:00.886Z,8.50
2019-06-15T01:14:35.267Z,8.20
2019-06-15T01:17:09.929Z,8.45
2019-06-15T01:19:44.335Z,9.33
2019-06-15T01:22:19.877Z,9.47
2019-06-15T01:25:05.152Z,8.55
2019-06-15T01:27:30.331Z,9.90
2019-06-15T01:30:05.270Z,9.98
2019-06-15T01:32:39.965Z,9.18
2019-06-15T01:35:15.266Z,8.73
2019-06-15T01:37:49.937Z,10.37
2019-06-15T01:40:24.929Z,9.20
2019-06-15T01:42:59.260Z,10.03
2019-06-15T01:45:33.908Z,10.70
2019-06-15T01:48:08.295Z,11.25
2019-06-15T01:50:42.775Z,10.55
2019-06-15T01:53:17.266Z,10.70
2019-06-15T01:55:51.711Z,9.40
2019-06-15T02:00:58.912Z,10.33
2019-06-15T02:03:33.297Z,10.37
2019-06-15T02:06:07.947Z,10.60
2019-06-15T02:08:42.302Z,9.78
2019-06-15T02:11:16.944Z,10.35
2019-06-15T02:13:51.711Z,11.30
2019-06-15T02:18:58.936Z,10.00
2019-06-15T02:21:33.319Z,10.35
2019-06-15T02:24:08.215Z,10.70
2019-06-15T02:26:42.686Z,10.50
2019-06-15T02:29:17.265Z,10.33
2019-06-15T02:31:51.723Z,10.33
2019-06-15T02:36:59.902Z,11.07
2019-06-15T02:39:34.740Z,11.97
2019-06-15T02:44:43.909Z,11.22
2019-06-15T02:47:18.310Z,10.95
2019-06-15T02:49:52.877Z,11.40
2019-06-15T02:52:27.690Z,10.70
2019-06-15T02:56:09.582Z,12.37
2019-06-15T02:58:43.970Z,11.28
2019-06-15T03:01:18.651Z,11.25
2019-06-15T03:06:26.278Z,11.40
2019-06-15T03:09:01.698Z,11.70
2019-06-15T03:11:36.855Z,11.25
2019-06-15T03:14:11.282Z,11.03
2019-06-15T03:16:45.922Z,11.20
2019-06-15T03:19:20.671Z,12.70
2019-06-15T03:21:56.121Z,11.85
2019-06-15T03:24:31.331Z,12.30
2019-06-15T03:27:06.255Z,11.75
2019-06-15T03:29:40.737Z,11.60
2019-06-15T03:34:48.130Z,11.80
2019-06-15T03:37:22.935Z,11.07
2019-06-15T03:42:36.271Z,12.43
2019-06-15T03:45:11.296Z,11.22
2019-06-15T03:47:45.867Z,12.00
2019-06-15T03:50:20.855Z,11.78
2019-06-15T03:52:55.272Z,11.35
2019-06-15T03:55:29.894Z,11.63
2019-06-15T03:58:04.274Z,12.20
2019-06-15T04:00:54.279Z,12.40
2019-06-15T04:03:28.736Z,12.25
2019-06-15T04:08:36.101Z,12.07
2019-06-15T04:11:11.842Z,12.13
2019-06-15T04:13:46.259Z,12.15
2019-06-15T04:16:20.892Z,12.97
2019-06-15T04:18:55.313Z,12.75
2019-06-15T04:21:29.847Z,12.85
2019-06-15T04:24:04.343Z,13.53
2019-06-15T04:26:38.870Z,12.63
2019-06-15T04:29:13.138Z,13.45
2019-06-15T04:31:47.680Z,11.93
2019-06-15T04:34:22.281Z,12.13
2019-06-15T04:36:56.908Z,12.80
2019-06-15T04:39:33.669Z,12.30
2019-06-15T04:42:07.990Z,12.43
2019-06-15T04:44:42.329Z,12.40
2019-06-15T04:47:17.133Z,13.08
2019-06-15T04:49:51.707Z,13.32
2019-06-15T04:54:59.129Z,12.55
2019-06-15T04:57:33.737Z,13.47
2019-06-15T05:02:42.338Z,12.80
2019-06-15T05:05:17.099Z,12.60
2019-06-15T05:07:51.664Z,13.07
2019-06-15T05:15:31.996Z,12.82
2019-06-15T05:18:06.630Z,13.07
2019-06-15T05:20:41.138Z,13.00
2019-06-15T05:23:15.648Z,12.58
2019-06-15T05:25:50.167Z,12.63
2019-06-15T05:28:24.672Z,13.00
2019-06-15T05:33:32.130Z,14.13
2019-06-15T05:36:07.499Z,13.22
2019-06-15T05:38:42.100Z,13.50
2019-06-15T05:41:16.721Z,22.05
2019-06-15T05:43:51.282Z,25.43
2019-06-15T05:46:25.954Z,13.80
2019-06-15T05:49:01.111Z,13.83
2019-06-15T05:51:35.787Z,13.03
2019-06-15T05:59:16.945Z,13.38
2019-06-15T06:01:52.249Z,14.67
2019-06-15T06:04:27.377Z,15.37
2019-06-15T06:07:02.267Z,13.72
2019-06-15T06:09:37.141Z,14.65
2019-06-15T06:12:12.330Z,14.77
2019-06-15T06:14:47.329Z,15.15
2019-06-15T06:17:22.271Z,15.20
2019-06-15T06:22:23.566Z,15.65
2019-06-15T06:24:58.682Z,15.85
2019-06-15T06:30:09.261Z,18.05
2019-06-15T06:32:45.738Z,17.50
2019-06-15T06:35:20.441Z,16.05
2019-06-15T06:37:55.273Z,16.50
2019-06-15T06:40:30.288Z,31.93
2019-06-15T06:43:05.312Z,37.93
2019-06-15T06:45:40.282Z,16.57
2019-06-15T06:48:15.949Z,16.62
2019-06-15T06:50:50.269Z,18.98
2019-06-15T06:53:24.669Z,18.03
2019-06-15T06:58:32.923Z,16.73
2019-06-15T07:01:07.270Z,16.60
2019-06-15T07:03:41.685Z,17.67
2019-06-15T07:11:22.775Z,17.30
2019-06-15T07:13:58.282Z,16.97
2019-06-15T07:16:32.715Z,15.72
2019-06-15T07:24:12.950Z,16.07
2019-06-15T07:26:47.800Z,16.27
2019-06-15T07:29:22.444Z,17.10
2019-06-15T07:31:57.217Z,14.90
2019-06-15T07:37:14.884Z,15.63
2019-06-15T07:39:49.278Z,14.43
2019-06-15T07:42:24.288Z,13.97
2019-06-15T07:46:44.349Z,14.75
2019-06-15T07:49:19.319Z,14.20
2019-06-15T07:51:54.291Z,15.95
2019-06-15T07:54:29.389Z,14.15
2019-06-15T07:57:05.945Z,12.90
2019-06-15T07:59:40.668Z,13.73
2019-06-15T08:02:15.133Z,7.80
2019-06-15T08:04:49.992Z,8.23
2019-06-15T08:07:25.593Z,7.80
2019-06-15T08:10:00.659Z,6.87
2019-06-15T08:12:35.384Z,5.40
2019-06-15T08:15:11.809Z,5.37
2019-06-15T08:17:46.324Z,4.62
2019-06-15T08:20:27.746Z,5.20
2019-06-15T08:23:02.286Z,5.85
2019-06-15T08:25:37.098Z,5.57
2019-06-15T08:28:12.272Z,4.77
2019-06-15T08:30:48.085Z,5.33
2019-06-15T08:33:22.697Z,4.63
2019-06-15T08:38:31.881Z,4.33
2019-06-15T08:41:06.316Z,4.90
2019-06-15T08:43:41.115Z,5.30
2019-06-15T08:46:15.766Z,5.45
2019-06-15T08:53:56.103Z,4.80
2019-06-15T08:56:30.733Z,4.85
2019-06-15T08:59:05.249Z,4.50
2019-06-15T09:01:40.414Z,4.50
2019-06-15T09:04:15.107Z,4.73
2019-06-15T09:06:49.938Z,4.50
2019-06-15T09:09:24.300Z,4.53
2019-06-15T09:11:58.884Z,4.57
2019-06-15T09:14:33.274Z,3.80
2019-06-15T09:17:08.071Z,3.83
2019-06-15T09:19:42.333Z,4.60
2019-06-15T09:22:18.421Z,4.00
2019-06-15T09:24:53.287Z,3.90
2019-06-15T09:27:27.915Z,4.37
2019-06-15T09:30:02.359Z,5.10
2019-06-15T09:32:36.949Z,4.33
2019-06-15T09:35:12.653Z,4.23
2019-06-15T09:40:20.743Z,4.77
2019-06-15T09:42:55.336Z,4.87
2019-06-15T09:45:32.772Z,4.80
2019-06-15T09:48:06.279Z,4.90
2019-06-15T09:50:40.705Z,4.93
2019-06-15T09:55:47.946Z,4.83
2019-06-15T09:58:22.279Z,5.00
2019-06-15T10:00:56.686Z,5.00
2019-06-15T10:06:05.684Z,5.10
2019-06-15T10:13:45.941Z,4.58
2019-06-15T10:16:20.307Z,5.30
2019-06-15T10:18:54.874Z,4.67
2019-06-15T10:21:29.099Z,4.33
2019-06-15T10:24:03.703Z,4.63
2019-06-15T10:26:38.190Z,5.07
2019-06-15T10:29:12.671Z,4.57
2019-06-15T10:34:19.967Z,4.00
2019-06-15T10:36:54.651Z,3.87
2019-06-15T10:39:29.340Z,4.17
2019-06-15T10:42:03.881Z,3.98
2019-06-15T10:44:38.266Z,4.37
2019-06-15T10:47:12.918Z,4.50
2019-06-15T10:49:47.275Z,5.07
2019-06-15T10:52:21.881Z,4.30
2019-06-15T10:54:56.286Z,3.87
2019-06-15T10:57:31.128Z,4.40
2019-06-15T11:00:06.266Z,4.80
2019-06-15T11:02:40.937Z,4.30
2019-06-15T11:05:18.663Z,5.00
2019-06-15T11:07:52.955Z,4.60
2019-06-15T11:10:55.280Z,3.80
2019-06-15T11:13:30.948Z,4.47
2019-06-15T11:16:05.580Z,4.33
2019-06-15T11:18:40.713Z,4.67
2019-06-15T11:26:21.285Z,4.80
2019-06-15T11:28:55.851Z,4.37
2019-06-15T11:34:03.084Z,4.43
2019-06-15T11:36:37.727Z,3.97
2019-06-15T11:39:12.284Z,4.22
2019-06-15T11:41:46.781Z,3.73
2019-06-15T11:44:21.096Z,3.33
2019-06-15T11:46:55.624Z,3.40
2019-06-15T11:52:03.318Z,3.90
2019-06-15T11:54:37.941Z,3.80
2019-06-15T11:57:12.316Z,4.37
2019-06-15T11:59:47.745Z,3.47
2019-06-15T12:04:58.528Z,3.22
2019-06-15T12:07:34.400Z,3.27
2019-06-15T12:12:41.302Z,3.47
2019-06-15T12:15:17.277Z,3.13
2019-06-15T12:17:51.746Z,3.17
2019-06-15T12:20:26.267Z,3.60
2019-06-15T12:23:01.413Z,2.37
2019-06-15T12:25:36.270Z,2.73
2019-06-15T12:28:11.234Z,2.53
2019-06-15T12:30:47.752Z,2.70
2019-06-15T12:33:22.271Z,2.40
2019-06-15T12:35:56.759Z,2.90
2019-06-15T12:38:31.328Z,2.85
2019-06-15T12:41:05.962Z,2.40
2019-06-15T12:43:40.643Z,2.67
2019-06-15T12:46:15.115Z,2.37
2019-06-15T12:48:49.681Z,2.50
2019-06-15T12:51:25.242Z,2.40
2019-06-15T12:53:59.739Z,2.60
2019-06-15T12:59:07.117Z,3.33
2019-06-15T13:01:41.661Z,2.50
2019-06-15T13:04:15.944Z,2.50
2019-06-15T13:14:29.752Z,3.10
2019-06-15T13:22:09.985Z,2.80
2019-06-15T13:24:44.685Z,2.70
2019-06-15T13:29:52.128Z,2.80
2019-06-15T13:32:26.667Z,2.60
2019-06-15T13:35:01.114Z,3.05
2019-06-15T13:37:41.956Z,2.33
2019-06-15T13:40:11.941Z,2.20
2019-06-15T13:42:46.639Z,3.07
2019-06-15T13:45:21.311Z,2.60
2019-06-15T13:47:55.785Z,2.37
2019-06-15T13:55:36.240Z,2.58
2019-06-15T13:58:10.748Z,4.33
2019-06-15T14:03:18.234Z,2.37
2019-06-15T14:05:52.703Z,2.30
2019-06-15T14:08:26.946Z,2.75
2019-06-15T14:11:02.753Z,2.67
2019-06-15T14:13:37.291Z,2.17
2019-06-15T14:16:11.870Z,2.62
2019-06-15T14:18:46.280Z,2.83
2019-06-15T14:21:20.858Z,3.03
2019-06-15T14:24:39.290Z,2.67
2019-06-15T14:27:13.937Z,3.27
2019-06-15T14:29:48.271Z,2.33
2019-06-15T14:32:22.886Z,2.80
2019-06-15T14:37:45.719Z,2.30
2019-06-15T14:44:59.747Z,2.30
2019-06-15T14:47:34.406Z,2.20
2019-06-15T14:50:09.295Z,1.95
2019-06-15T14:52:43.947Z,2.00
2019-06-15T14:55:18.883Z,2.00
2019-06-15T14:57:53.437Z,2.13
2019-06-15T15:00:28.299Z,2.60
2019-06-15T15:03:03.122Z,2.20
2019-06-15T15:05:37.845Z,2.00
2019-06-15T15:08:12.369Z,2.20
2019-06-15T15:10:46.894Z,2.00
2019-06-15T15:13:21.324Z,2.13
2019-06-15T15:15:56.937Z,2.07
2019-06-15T15:18:31.715Z,2.00
2019-06-15T15:21:06.818Z,1.85
2019-06-15T15:23:41.652Z,2.20
2019-06-15T15:28:50.863Z,1.80
2019-06-15T15:34:03.977Z,2.20
2019-06-15T15:36:36.952Z,1.70
2019-06-15T15:39:11.849Z,2.07
2019-06-15T15:44:21.385Z,2.25
2019-06-15T15:49:32.462Z,2.00
2019-06-15T15:52:06.931Z,1.93
2019-06-15T15:54:41.338Z,1.70
2019-06-15T15:57:17.213Z,1.60
2019-06-15T15:59:51.951Z,1.70
2019-06-15T16:02:35.632Z,1.60
2019-06-15T16:05:02.295Z,1.67
2019-06-15T16:07:36.906Z,2.23
2019-06-15T16:10:12.679Z,1.75
2019-06-15T16:15:20.893Z,3.50
2019-06-15T16:20:30.106Z,1.60
2019-06-15T16:23:07.182Z,1.43
2019-06-15T16:25:41.281Z,1.97
2019-06-15T16:28:15.689Z,1.87
2019-06-15T16:31:04.984Z,2.13
2019-06-15T16:33:26.616Z,1.40
2019-06-15T16:36:01.810Z,2.20
2019-06-15T16:38:37.475Z,2.07
2019-06-15T16:41:12.932Z,2.47
2019-06-15T16:43:48.392Z,2.37
2019-06-15T16:46:26.332Z,6.87
2019-06-15T16:49:05.571Z,2.43
2019-06-15T16:51:40.527Z,2.27
2019-06-15T16:54:16.584Z,2.90
2019-06-15T16:56:51.444Z,2.33
2019-06-15T16:59:27.310Z,2.07
2019-06-15T17:02:02.988Z,2.37
2019-06-15T17:04:37.963Z,2.23
2019-06-15T17:07:12.919Z,2.10
2019-06-15T17:09:47.686Z,2.13
2019-06-15T17:14:55.467Z,2.77
2019-06-15T17:17:30.143Z,2.00
2019-06-15T17:20:06.463Z,2.17
2019-06-15T17:22:41.083Z,1.60
2019-06-15T17:25:16.606Z,2.10
2019-06-15T17:30:26.395Z,2.10
2019-06-15T17:33:04.746Z,1.73
2019-06-15T17:35:37.078Z,2.03
2019-06-15T17:38:11.678Z,2.27
2019-06-15T17:40:46.245Z,1.72
2019-06-15T17:43:20.875Z,8.57
2019-06-15T17:45:56.502Z,2.50
2019-06-15T17:48:31.139Z,2.12
2019-06-15T17:51:06.602Z,2.20
2019-06-15T17:56:16.257Z,2.20
2019-06-15T17:58:50.481Z,2.67
2019-06-15T18:01:26.518Z,3.08
2019-06-15T18:04:01.494Z,1.90
2019-06-15T18:06:36.431Z,2.00
2019-06-15T18:09:11.281Z,2.20
2019-06-15T18:11:46.411Z,2.13
2019-06-15T18:16:38.519Z,2.17
2019-06-15T18:19:13.270Z,2.33
2019-06-15T18:21:47.863Z,1.90
2019-06-15T18:24:22.960Z,1.80
2019-06-15T18:26:57.711Z,1.90
2019-06-15T18:29:36.798Z,2.10
2019-06-15T18:32:11.281Z,2.40
2019-06-15T18:34:46.572Z,2.03
2019-06-15T18:39:43.022Z,1.90
2019-06-15T18:42:18.303Z,2.72
2019-06-15T18:44:52.973Z,2.75
2019-06-15T18:47:27.691Z,2.30
2019-06-15T18:55:08.643Z,2.15
2019-06-15T18:57:43.295Z,1.87
2019-06-15T19:00:18.431Z,2.80
2019-06-15T19:02:53.287Z,2.40
2019-06-15T19:05:27.899Z,2.47
2019-06-15T19:10:36.737Z,2.07
2019-06-15T19:15:46.460Z,1.90
2019-06-15T19:18:21.283Z,1.80
2019-06-15T19:20:56.323Z,2.20
2019-06-15T19:23:31.125Z,2.43
2019-06-15T19:26:06.352Z,1.60
2019-06-15T19:28:41.126Z,1.90
2019-06-15T19:31:15.662Z,1.87
2019-06-15T19:33:50.468Z,1.77
2019-06-15T19:36:26.400Z,1.95
2019-06-15T19:39:01.298Z,1.90
2019-06-15T19:42:42.733Z,1.70
2019-06-15T19:47:51.667Z,1.60
2019-06-15T19:50:26.828Z,1.60
2019-06-15T19:53:01.593Z,1.40
2019-06-15T19:55:37.290Z,1.60
2019-06-15T19:58:11.909Z,1.80
2019-06-15T20:00:47.028Z,1.60
2019-06-15T20:03:21.875Z,2.00
2019-06-15T20:08:31.322Z,2.08
2019-06-15T20:11:07.298Z,1.40
2019-06-15T20:13:41.947Z,1.67
2019-06-15T20:18:51.113Z,1.42
2019-06-15T20:23:16.642Z,1.40
2019-06-15T20:25:51.283Z,1.60
2019-06-15T20:28:27.274Z,1.67
2019-06-15T20:31:02.144Z,1.60
2019-06-15T20:33:37.117Z,2.03
2019-06-15T20:36:12.078Z,1.90
2019-06-15T20:38:46.988Z,1.90
2019-06-15T20:41:21.364Z,1.83
2019-06-15T20:43:56.620Z,1.93
2019-06-15T20:49:06.604Z,8.80
2019-06-15T21:06:59.433Z,1.82
2019-06-15T21:09:36.424Z,1.90
2019-06-15T21:12:10.297Z,1.80
2019-06-15T21:14:47.017Z,1.47
2019-06-15T21:17:21.508Z,2.10
2019-06-15T21:19:55.966Z,1.87
2019-06-15T21:22:30.319Z,1.37
2019-06-15T21:25:06.821Z,1.93
2019-06-15T21:27:41.663Z,1.80
2019-06-15T21:32:52.275Z,1.92
2019-06-15T21:35:26.961Z,2.50
2019-06-15T21:38:01.387Z,2.17
2019-06-15T21:40:36.833Z,2.30
2019-06-15T21:43:11.685Z,2.60
2019-06-15T21:45:46.442Z,2.70
2019-06-15T21:48:21.296Z,2.72
2019-06-15T21:50:59.171Z,2.65
2019-06-15T21:53:32.133Z,2.60
2019-06-15T21:56:07.265Z,2.50
2019-06-15T21:58:42.287Z,3.07
2019-06-15T22:01:33.796Z,3.30
2019-06-15T23:12:36.911Z,2.67
2019-06-15T23:15:10.899Z,2.67
2019-06-15T23:17:46.695Z,2.80
2019-06-15T23:20:21.343Z,2.72
2019-06-15T23:22:56.214Z,3.00
2019-06-15T23:25:30.839Z,3.13
2019-06-15T23:30:38.307Z,2.97
2019-06-15T23:33:12.869Z,2.60
2019-06-15T23:38:26.964Z,2.77
2019-06-15T23:41:01.778Z,2.50
2019-06-15T23:43:36.329Z,2.70
2019-06-15T23:46:10.941Z,2.60
2019-06-15T23:48:47.033Z,2.75
2019-06-15T23:51:21.277Z,2.87
2019-06-15T23:53:57.187Z,2.87
2019-06-15T23:56:31.823Z,2.33
